createdAt,value
2023-03-11T00:00:47.449Z,76.34
2023-03-11T00:03:27.798Z,76.18
2023-03-11T00:05:56.644Z,76.58
2023-03-11T00:08:25.910Z,76.50
2023-03-11T00:11:00.472Z,76.44
2023-03-11T00:13:29.318Z,76.40
2023-03-11T00:15:58.092Z,76.26
2023-03-11T00:18:28.226Z,76.28
2023-03-11T00:20:57.162Z,76.20
2023-03-11T00:23:26.804Z,76.53
2023-03-11T00:25:55.139Z,76.52
2023-03-11T00:28:26.324Z,76.59
2023-03-11T00:30:54.544Z,76.74
2023-03-11T00:33:23.428Z,76.56
2023-03-11T00:35:51.534Z,76.40
2023-03-11T00:38:21.855Z,76.40
2023-03-11T00:40:50.279Z,76.21
2023-03-11T00:43:18.407Z,76.13
2023-03-11T00:45:46.944Z,76.31
2023-03-11T00:48:15.489Z,76.20
2023-03-11T00:50:43.870Z,76.17
2023-03-11T00:53:12.416Z,76.28
2023-03-11T00:55:41.266Z,76.17
2023-03-11T00:58:12.060Z,75.74
2023-03-11T01:00:44.144Z,76.08
2023-03-11T01:03:12.209Z,76.24
2023-03-11T01:05:40.697Z,75.88
2023-03-11T01:08:08.647Z,75.86
2023-03-11T01:10:37.376Z,75.95
2023-03-11T01:13:05.582Z,75.99
2023-03-11T01:15:36.787Z,76.19
2023-03-11T01:18:06.135Z,76.57
2023-03-11T01:20:36.796Z,76.75
2023-03-11T01:23:06.897Z,76.72
2023-03-11T01:25:35.290Z,76.73
2023-03-11T01:28:03.351Z,76.73
2023-03-11T01:30:31.641Z,76.77
2023-03-11T01:32:59.750Z,76.70
2023-03-11T01:35:29.829Z,76.61
2023-03-11T01:37:58.898Z,76.63
2023-03-11T01:40:29.852Z,76.33
2023-03-11T01:43:00.314Z,76.60
2023-03-11T01:45:29.068Z,76.43
2023-03-11T01:47:57.235Z,76.51
2023-03-11T01:50:27.720Z,76.34
2023-03-11T01:52:55.833Z,76.26
2023-03-11T01:55:23.904Z,76.50
2023-03-11T01:57:53.722Z,76.65
2023-03-11T02:00:21.858Z,76.62
2023-03-11T02:02:53.324Z,76.46
2023-03-11T02:05:22.944Z,76.42
2023-03-11T02:07:55.148Z,76.07
2023-03-11T02:10:25.071Z,76.23
2023-03-11T02:12:53.727Z,76.53
2023-03-11T02:15:26.699Z,76.66
2023-03-11T02:17:56.613Z,76.69
2023-03-11T02:21:03.609Z,76.76
2023-03-11T02:24:13.504Z,77.23
2023-03-11T02:27:03.639Z,77.48
2023-03-11T02:29:33.864Z,77.92
2023-03-11T02:32:06.784Z,78.33
2023-03-11T02:34:38.913Z,78.33
2023-03-11T02:37:10.397Z,78.72
2023-03-11T02:39:40.604Z,78.69
2023-03-11T02:42:17.768Z,78.50
2023-03-11T02:44:53.309Z,78.55
2023-03-11T02:47:21.509Z,78.69
2023-03-11T02:49:49.702Z,78.49
2023-03-11T02:52:17.887Z,78.45
2023-03-11T02:54:45.893Z,78.92
2023-03-11T02:57:13.884Z,78.79
2023-03-11T02:59:42.132Z,78.97
2023-03-11T03:02:10.408Z,79.07
2023-03-11T03:04:39.920Z,79.43
2023-03-11T03:07:08.898Z,79.34
2023-03-11T03:09:38.511Z,79.62
2023-03-11T03:12:07.660Z,79.75
2023-03-11T03:14:36.008Z,79.64
2023-03-11T03:17:04.229Z,79.72
2023-03-11T03:19:32.294Z,79.81
2023-03-11T03:22:00.421Z,79.85
2023-03-11T03:24:28.979Z,79.66
2023-03-11T03:26:57.021Z,79.43
2023-03-11T03:29:25.124Z,79.63
2023-03-11T03:31:53.171Z,79.63
2023-03-11T03:34:21.451Z,79.71
2023-03-11T03:36:49.847Z,79.88
2023-03-11T03:39:20.034Z,80.06
2023-03-11T03:41:48.748Z,80.47
2023-03-11T03:44:16.933Z,80.58
2023-03-11T03:46:46.421Z,80.75
2023-03-11T03:49:14.454Z,80.98
2023-03-11T03:51:42.642Z,81.05
2023-03-11T03:54:20.688Z,81.38
2023-03-11T03:56:48.931Z,81.25
2023-03-11T03:59:17.019Z,81.49
2023-03-11T04:01:49.686Z,81.56
2023-03-11T04:04:18.266Z,81.55
2023-03-11T04:06:46.381Z,81.67
2023-03-11T04:09:14.933Z,81.56
2023-03-11T04:11:43.220Z,81.48
2023-03-11T04:14:12.058Z,81.64
2023-03-11T04:16:43.880Z,81.71
2023-03-11T04:19:13.253Z,81.66
2023-03-11T04:21:41.650Z,81.54
2023-03-11T04:24:10.014Z,81.61
2023-03-11T04:26:39.140Z,81.76
2023-03-11T04:29:09.359Z,81.85
2023-03-11T04:31:41.283Z,82.02
2023-03-11T04:34:10.580Z,81.90
2023-03-11T04:36:39.252Z,82.07
2023-03-11T04:39:07.918Z,82.17
2023-03-11T04:41:39.863Z,82.16
2023-03-11T04:44:08.008Z,82.07
2023-03-11T04:46:36.231Z,82.40
2023-03-11T04:49:05.657Z,82.32
2023-03-11T04:51:33.786Z,82.44
2023-03-11T04:54:01.972Z,82.48
2023-03-11T04:56:30.480Z,82.72
2023-03-11T04:58:58.934Z,82.65
2023-03-11T05:01:27.463Z,82.66
2023-03-11T05:03:55.718Z,82.72
2023-03-11T05:06:23.746Z,82.64
2023-03-11T05:08:51.959Z,82.66
2023-03-11T05:11:20.223Z,82.49
2023-03-11T05:13:48.228Z,82.38
2023-03-11T05:16:16.429Z,82.43
2023-03-11T05:18:44.853Z,82.34
2023-03-11T05:21:14.863Z,82.19
2023-03-11T05:23:43.125Z,82.30
2023-03-11T05:26:11.933Z,82.09
2023-03-11T05:28:40.538Z,82.07
2023-03-11T05:31:11.843Z,82.08
2023-03-11T05:33:39.887Z,82.06
2023-03-11T05:36:10.403Z,82.01
2023-03-11T05:38:40.204Z,82.07
2023-03-11T05:41:08.758Z,82.06
2023-03-11T05:43:37.387Z,81.92
2023-03-11T05:46:05.706Z,81.85
2023-03-11T05:48:33.827Z,81.87
2023-03-11T05:51:01.861Z,81.68
2023-03-11T05:53:29.845Z,81.27
2023-03-11T05:55:59.069Z,81.47
2023-03-11T05:58:29.289Z,81.40
2023-03-11T06:00:58.220Z,81.49
2023-03-11T06:03:26.537Z,81.33
2023-03-11T06:05:54.892Z,81.34
2023-03-11T06:08:23.068Z,81.48
2023-03-11T06:10:51.516Z,81.45
2023-03-11T06:13:20.541Z,81.37
2023-03-11T06:15:51.294Z,81.61
2023-03-11T06:18:19.597Z,81.55
2023-03-11T06:20:47.922Z,81.41
2023-03-11T06:23:15.988Z,81.48
2023-03-11T06:25:44.059Z,81.19
2023-03-11T06:28:12.587Z,81.23
2023-03-11T06:30:41.149Z,80.91
2023-03-11T06:33:12.014Z,80.80
2023-03-11T06:35:40.087Z,80.68
2023-03-11T06:38:08.114Z,81.06
2023-03-11T06:40:38.080Z,81.01
2023-03-11T06:43:06.354Z,80.91
2023-03-11T06:45:35.722Z,81.16
2023-03-11T06:48:04.055Z,81.38
2023-03-11T06:50:32.644Z,81.44
2023-03-11T06:53:03.170Z,81.34
2023-03-11T06:55:32.057Z,81.69
2023-03-11T06:58:00.544Z,81.84
2023-03-11T07:00:30.569Z,81.77
2023-03-11T07:02:59.445Z,81.20
2023-03-11T07:05:27.801Z,81.05
2023-03-11T07:07:58.773Z,80.97
2023-03-11T07:10:27.136Z,80.87
2023-03-11T07:12:55.282Z,80.80
2023-03-11T07:15:24.800Z,80.73
2023-03-11T07:17:52.994Z,80.39
2023-03-11T07:20:21.172Z,80.18
2023-03-11T07:22:49.608Z,80.24
2023-03-11T07:25:17.782Z,79.99
2023-03-11T07:27:45.762Z,79.52
2023-03-11T07:30:14.660Z,78.96
2023-03-11T07:32:42.825Z,79.25
2023-03-11T07:35:10.962Z,78.72
2023-03-11T07:37:38.965Z,78.65
2023-03-11T07:40:08.065Z,78.57
2023-03-11T07:42:36.030Z,78.17
2023-03-11T07:45:04.434Z,78.44
2023-03-11T07:47:32.383Z,78.14
2023-03-11T07:50:00.469Z,78.02
2023-03-11T07:52:32.916Z,77.89
2023-03-11T07:55:01.128Z,77.93
2023-03-11T07:57:29.187Z,77.83
2023-03-11T07:59:57.476Z,77.64
2023-03-11T08:02:25.649Z,77.43
2023-03-11T08:04:55.850Z,77.16
2023-03-11T08:07:24.036Z,77.19
2023-03-11T08:09:52.094Z,77.06
2023-03-11T08:12:20.061Z,76.93
2023-03-11T08:14:48.143Z,76.38
2023-03-11T08:17:16.402Z,76.52
2023-03-11T08:19:44.478Z,76.49
2023-03-11T08:22:12.542Z,76.38
2023-03-11T08:24:40.664Z,76.20
2023-03-11T08:27:09.818Z,76.07
2023-03-11T08:29:37.790Z,75.76
2023-03-11T08:32:06.216Z,75.72
2023-03-11T08:34:35.347Z,75.89
2023-03-11T08:37:03.741Z,75.81
2023-03-11T08:39:32.014Z,75.89
2023-03-11T08:42:00.131Z,75.69
2023-03-11T08:44:28.147Z,75.37
2023-03-11T08:46:56.184Z,75.06
2023-03-11T08:49:24.598Z,74.90
2023-03-11T08:51:52.540Z,74.82
2023-03-11T08:54:20.632Z,74.89
2023-03-11T08:56:49.275Z,75.02
2023-03-11T08:59:17.224Z,74.89
2023-03-11T09:01:45.565Z,74.70
2023-03-11T09:04:14.079Z,74.79
2023-03-11T09:06:44.276Z,74.69
2023-03-11T09:09:12.752Z,74.49
2023-03-11T09:11:41.854Z,74.62
2023-03-11T09:14:09.909Z,74.57
2023-03-11T09:16:37.903Z,73.91
2023-03-11T09:19:07.545Z,73.62
2023-03-11T09:21:36.208Z,73.72
2023-03-11T09:24:05.381Z,73.69
2023-03-11T09:26:33.843Z,73.79
2023-03-11T09:29:01.813Z,73.92
2023-03-11T09:31:29.905Z,73.91
2023-03-11T09:33:57.965Z,73.74
2023-03-11T09:36:25.979Z,74.02
2023-03-11T09:38:53.956Z,73.99
2023-03-11T09:41:57.456Z,73.31
2023-03-11T09:45:01.597Z,73.54
2023-03-11T09:48:01.115Z,73.10
2023-03-11T09:50:36.229Z,72.87
2023-03-11T09:53:04.615Z,72.78
2023-03-11T09:55:46.393Z,72.81
2023-03-11T09:58:21.156Z,72.93
2023-03-11T10:00:52.124Z,72.37
2023-03-11T10:03:34.077Z,71.71
2023-03-11T10:06:14.331Z,71.36
2023-03-11T10:08:44.584Z,71.70
2023-03-11T10:11:54.401Z,71.60
2023-03-11T10:14:34.249Z,71.64
2023-03-11T10:17:30.890Z,71.06
2023-03-11T10:20:08.351Z,70.93
2023-03-11T10:23:10.355Z,70.86
2023-03-11T10:25:55.053Z,70.71
2023-03-11T10:28:31.264Z,70.57
2023-03-11T10:31:19.055Z,70.81
2023-03-11T10:33:59.318Z,70.78
2023-03-11T10:36:35.934Z,70.48
2023-03-11T10:39:05.444Z,70.58
2023-03-11T10:41:52.145Z,70.67
2023-03-11T10:44:41.842Z,70.06
2023-03-11T10:47:18.480Z,69.69
2023-03-11T10:49:46.660Z,70.11
2023-03-11T10:52:15.104Z,69.76
2023-03-11T10:54:46.588Z,68.80
2023-03-11T10:57:35.994Z,68.39
2023-03-11T11:00:17.287Z,67.72
2023-03-11T11:02:58.452Z,68.52
2023-03-11T11:05:34.273Z,68.35
2023-03-11T11:08:14.018Z,68.85
2023-03-11T11:10:56.449Z,69.05
2023-03-11T11:13:27.441Z,69.12
2023-03-11T11:16:01.679Z,68.95
2023-03-11T11:18:32.828Z,68.71
2023-03-11T11:21:08.223Z,68.06
2023-03-11T11:24:02.775Z,67.68
2023-03-11T11:26:30.822Z,66.95
2023-03-11T11:29:08.804Z,66.61
2023-03-11T11:31:45.134Z,66.93
2023-03-11T11:34:30.282Z,66.43
2023-03-11T11:37:04.466Z,66.05
2023-03-11T11:39:56.370Z,65.59
2023-03-11T11:42:29.464Z,65.99
2023-03-11T11:45:13.264Z,65.52
2023-03-11T11:47:47.240Z,65.74
2023-03-11T11:50:37.937Z,65.84
2023-03-11T11:53:17.582Z,65.16
2023-03-11T11:55:52.641Z,65.03
2023-03-11T11:58:22.259Z,65.39
2023-03-11T12:01:09.036Z,64.98
2023-03-11T12:03:58.051Z,65.15
2023-03-11T12:06:38.373Z,65.07
2023-03-11T12:09:33.763Z,64.43
2023-03-11T12:12:21.811Z,64.39
2023-03-11T12:15:01.463Z,64.44
2023-03-11T12:17:32.388Z,64.25
2023-03-11T12:20:08.745Z,64.38
2023-03-11T12:22:55.547Z,64.22
2023-03-11T12:25:28.021Z,63.73
2023-03-11T12:28:18.732Z,63.84
2023-03-11T12:31:02.372Z,62.57
2023-03-11T12:33:37.097Z,62.96
2023-03-11T12:36:07.280Z,62.97
2023-03-11T12:38:47.650Z,62.63
2023-03-11T12:41:15.530Z,62.37
2023-03-11T12:43:43.437Z,62.67
2023-03-11T12:46:14.472Z,62.18
2023-03-11T12:49:11.800Z,62.03
2023-03-11T12:51:41.660Z,62.27
2023-03-11T12:54:36.994Z,62.52
2023-03-11T12:57:37.518Z,62.73
2023-03-11T13:00:23.095Z,62.03
2023-03-11T13:03:10.227Z,61.48
2023-03-11T13:06:16.026Z,61.11
2023-03-11T13:08:46.422Z,60.41
2023-03-11T13:11:32.344Z,60.61
2023-03-11T13:14:16.491Z,60.23
2023-03-11T13:16:48.844Z,59.87
2023-03-11T13:19:35.005Z,60.16
2023-03-11T13:22:05.617Z,60.06
2023-03-11T13:24:33.561Z,60.11
2023-03-11T13:27:04.555Z,60.59
2023-03-11T13:29:35.602Z,60.57
2023-03-11T13:32:17.172Z,60.40
2023-03-11T13:35:03.899Z,61.32
2023-03-11T13:37:53.829Z,61.88
2023-03-11T13:40:37.368Z,62.08
2023-03-11T13:43:11.806Z,62.59
2023-03-11T13:45:40.075Z,63.93
2023-03-11T13:48:14.203Z,64.90
2023-03-11T13:50:48.296Z,65.08
2023-03-11T13:53:48.558Z,65.21
2023-03-11T13:56:22.203Z,65.34
2023-03-11T13:58:50.125Z,65.49
2023-03-11T14:01:19.142Z,65.79
2023-03-11T14:03:48.426Z,66.01
2023-03-11T14:06:19.765Z,66.56
2023-03-11T14:08:56.148Z,67.11
2023-03-11T14:11:29.359Z,67.46
2023-03-11T14:13:57.501Z,67.92
2023-03-11T14:16:44.336Z,68.04
2023-03-11T14:19:17.804Z,67.78
2023-03-11T14:21:48.123Z,67.00
2023-03-11T14:24:25.226Z,66.26
2023-03-11T14:26:55.997Z,66.11
2023-03-11T14:29:34.252Z,65.29
2023-03-11T14:32:25.966Z,65.23
2023-03-11T14:34:54.902Z,65.19
2023-03-11T14:37:27.741Z,65.24
2023-03-11T14:39:55.925Z,65.11
2023-03-11T14:42:38.552Z,64.66
2023-03-11T14:45:18.191Z,65.01
2023-03-11T14:47:50.127Z,65.22
2023-03-11T14:50:24.488Z,65.86
2023-03-11T14:53:09.270Z,65.46
2023-03-11T14:55:51.317Z,65.27
2023-03-11T14:58:19.266Z,65.29
2023-03-11T15:00:53.870Z,64.93
2023-03-11T15:03:24.776Z,64.84
2023-03-11T15:05:57.574Z,64.64
2023-03-11T15:08:32.246Z,63.97
2023-03-11T15:11:11.930Z,64.02
2023-03-11T15:13:47.555Z,63.38
2023-03-11T15:16:25.063Z,62.97
2023-03-11T15:18:54.662Z,62.92
2023-03-11T15:21:25.024Z,62.58
2023-03-11T15:24:01.144Z,62.63
2023-03-11T15:26:32.535Z,61.86
2023-03-11T15:29:05.306Z,61.72
2023-03-11T15:31:37.891Z,61.19
2023-03-11T15:34:17.791Z,61.55
2023-03-11T15:36:48.646Z,61.78
2023-03-11T15:39:44.026Z,61.16
2023-03-11T15:42:15.768Z,58.97
2023-03-11T15:45:04.979Z,58.07
2023-03-11T15:47:33.432Z,58.59
2023-03-11T15:50:26.350Z,58.26
2023-03-11T15:52:59.339Z,58.42
2023-03-11T15:55:27.968Z,58.85
2023-03-11T15:58:05.622Z,59.15
2023-03-11T16:00:35.338Z,59.41
2023-03-11T16:03:03.689Z,59.55
2023-03-11T16:05:31.716Z,60.02
2023-03-11T16:07:59.743Z,60.02
2023-03-11T16:10:29.065Z,59.30
2023-03-11T16:12:57.236Z,59.57
2023-03-11T16:15:29.207Z,59.46
2023-03-11T16:17:59.896Z,59.47
2023-03-11T16:20:41.721Z,59.47
2023-03-11T16:23:20.625Z,59.30
2023-03-11T16:25:50.245Z,59.81
2023-03-11T16:28:18.308Z,59.53
2023-03-11T16:30:47.177Z,59.11
2023-03-11T16:33:15.582Z,59.29
2023-03-11T16:35:43.622Z,59.49
2023-03-11T16:38:11.823Z,59.61
2023-03-11T16:40:40.338Z,59.64
2023-03-11T16:43:12.750Z,59.75
2023-03-11T16:45:41.165Z,59.70
2023-03-11T16:48:09.305Z,59.90
2023-03-11T16:50:37.814Z,59.60
2023-03-11T16:53:06.115Z,59.20
2023-03-11T16:55:34.184Z,59.57
2023-03-11T16:58:02.377Z,59.35
2023-03-11T17:00:30.836Z,59.24
2023-03-11T17:02:59.135Z,59.73
2023-03-11T17:05:27.357Z,60.16
2023-03-11T17:08:00.935Z,59.37
2023-03-11T17:10:29.274Z,59.86
2023-03-11T17:12:57.403Z,60.09
2023-03-11T17:15:25.503Z,59.98
2023-03-11T17:17:53.542Z,60.03
2023-03-11T17:20:21.854Z,59.74
2023-03-11T17:22:50.167Z,59.72
2023-03-11T17:25:18.377Z,59.89
2023-03-11T17:27:46.420Z,59.45
2023-03-11T17:30:24.264Z,59.52
2023-03-11T17:32:58.966Z,60.05
2023-03-11T17:35:27.137Z,59.39
2023-03-11T17:37:55.328Z,59.10
2023-03-11T17:40:23.498Z,58.74
2023-03-11T17:42:51.501Z,58.86
2023-03-11T17:45:19.725Z,58.92
2023-03-11T17:47:47.895Z,59.11
2023-03-11T17:50:16.027Z,59.31
2023-03-11T17:52:46.462Z,59.18
2023-03-11T17:55:14.674Z,59.42
2023-03-11T17:57:45.761Z,59.59
2023-03-11T18:00:15.111Z,59.20
2023-03-11T18:02:43.512Z,58.85
2023-03-11T18:05:11.756Z,59.34
2023-03-11T18:07:39.795Z,59.86
2023-03-11T18:10:09.353Z,60.44
2023-03-11T18:12:38.084Z,61.04
2023-03-11T18:15:12.062Z,61.28
2023-03-11T18:17:40.534Z,61.54
2023-03-11T18:20:09.550Z,61.47
2023-03-11T18:22:40.149Z,61.51
2023-03-11T18:25:10.282Z,60.81
2023-03-11T18:27:38.853Z,60.06
2023-03-11T18:30:08.324Z,60.04
2023-03-11T18:32:36.365Z,59.90
2023-03-11T18:35:04.689Z,59.90
2023-03-11T18:37:33.675Z,59.86
2023-03-11T18:40:01.837Z,59.76
2023-03-11T18:42:29.909Z,59.64
2023-03-11T18:44:57.879Z,59.95
2023-03-11T18:47:25.883Z,59.62
2023-03-11T18:49:54.977Z,59.93
2023-03-11T18:52:23.215Z,59.97
2023-03-11T18:54:51.247Z,60.02
2023-03-11T18:57:19.371Z,60.11
2023-03-11T18:59:49.129Z,60.14
2023-03-11T19:02:17.157Z,60.22
2023-03-11T19:04:45.188Z,60.42
2023-03-11T19:07:13.533Z,60.48
2023-03-11T19:09:41.760Z,60.60
2023-03-11T19:12:09.769Z,60.66
2023-03-11T19:14:37.704Z,60.58
2023-03-11T19:17:05.903Z,60.76
2023-03-11T19:19:34.252Z,60.72
2023-03-11T19:22:02.324Z,61.34
2023-03-11T19:24:30.374Z,61.52
2023-03-11T19:26:58.563Z,61.29
2023-03-11T19:29:26.963Z,61.26
2023-03-11T19:31:55.267Z,61.30
2023-03-11T19:34:23.287Z,61.23
2023-03-11T19:36:51.389Z,61.25
2023-03-11T19:39:19.456Z,61.39
2023-03-11T19:41:47.628Z,61.38
2023-03-11T19:44:15.783Z,61.42
2023-03-11T19:46:43.855Z,61.88
2023-03-11T19:49:11.929Z,61.71
2023-03-11T19:51:49.537Z,61.69
2023-03-11T19:54:19.645Z,61.51
2023-03-11T19:56:48.260Z,61.42
2023-03-11T19:59:16.586Z,61.46
2023-03-11T20:01:44.631Z,61.50
2023-03-11T20:04:15.315Z,61.58
2023-03-11T20:06:44.820Z,61.45
2023-03-11T20:09:13.598Z,61.50
2023-03-11T20:11:42.934Z,61.46
2023-03-11T20:14:12.124Z,61.53
2023-03-11T20:16:40.560Z,61.95
2023-03-11T20:19:08.659Z,61.86
2023-03-11T20:21:40.990Z,62.13
2023-03-11T20:24:09.996Z,61.61
2023-03-11T20:26:38.947Z,61.51
2023-03-11T20:29:07.467Z,61.54
2023-03-11T20:31:36.692Z,61.48
2023-03-11T20:34:05.335Z,61.56
2023-03-11T20:36:34.161Z,61.74
2023-03-11T20:39:03.744Z,61.72
2023-03-11T20:41:40.267Z,61.72
2023-03-11T20:44:12.404Z,61.81
2023-03-11T20:46:41.519Z,62.05
2023-03-11T20:49:09.802Z,62.49
2023-03-11T20:51:41.068Z,62.37
2023-03-11T20:54:10.092Z,62.40
2023-03-11T20:56:38.201Z,62.31
2023-03-11T20:59:07.588Z,62.38
2023-03-11T21:01:36.011Z,62.71
2023-03-11T21:04:04.587Z,62.65
2023-03-11T21:06:38.142Z,62.92
2023-03-11T21:09:10.923Z,63.02
2023-03-11T21:11:39.193Z,63.02
2023-03-11T21:14:08.019Z,62.99
2023-03-11T21:16:37.613Z,63.35
2023-03-11T21:19:08.449Z,63.31
2023-03-11T21:21:36.728Z,63.47
2023-03-11T21:24:05.885Z,64.00
2023-03-11T21:26:34.956Z,63.95
2023-03-11T21:29:03.502Z,63.89
2023-03-11T21:31:31.677Z,64.08
2023-03-11T21:34:01.395Z,64.22
2023-03-11T21:36:30.243Z,64.31
2023-03-11T21:38:58.381Z,64.55
2023-03-11T21:41:27.618Z,64.60
2023-03-11T21:43:57.331Z,64.62
2023-03-11T21:46:28.297Z,64.85
2023-03-11T21:48:56.830Z,64.92
2023-03-11T21:51:25.821Z,65.13
2023-03-11T21:53:54.006Z,65.13
2023-03-11T21:56:23.073Z,65.53
2023-03-11T21:58:51.265Z,65.53
2023-03-11T22:01:19.359Z,65.77
2023-03-11T22:03:48.460Z,65.93
2023-03-11T22:06:16.746Z,66.11
2023-03-11T22:08:44.967Z,66.39
2023-03-11T22:11:17.981Z,66.45
2023-03-11T22:13:51.882Z,66.53
2023-03-11T22:16:22.448Z,66.90
2023-03-11T22:18:51.423Z,66.94
2023-03-11T22:21:20.925Z,67.05
2023-03-11T22:23:49.158Z,67.19
2023-03-11T22:26:17.634Z,67.38
2023-03-11T22:28:45.656Z,67.33
2023-03-11T22:31:15.748Z,67.49
2023-03-11T22:33:43.979Z,67.81
2023-03-11T22:36:12.243Z,67.81
2023-03-11T22:38:42.314Z,67.88
2023-03-11T22:41:11.476Z,67.84
2023-03-11T22:43:39.865Z,68.05
2023-03-11T22:46:08.037Z,68.22
2023-03-11T22:48:36.522Z,68.43
2023-03-11T22:51:05.739Z,68.64
2023-03-11T22:53:33.894Z,68.81
2023-03-11T22:56:10.825Z,68.94
2023-03-11T22:58:39.067Z,69.07
2023-03-11T23:01:07.833Z,69.27
2023-03-11T23:03:37.235Z,69.32
2023-03-11T23:06:08.460Z,69.29
2023-03-11T23:08:36.903Z,69.40
2023-03-11T23:11:08.395Z,69.50
2023-03-11T23:13:37.586Z,69.39
2023-03-11T23:16:09.244Z,69.63
2023-03-11T23:18:37.617Z,69.71
2023-03-11T23:21:06.000Z,69.62
2023-03-11T23:23:33.992Z,69.44
2023-03-11T23:26:08.027Z,69.49
2023-03-11T23:28:36.256Z,69.39
2023-03-11T23:31:04.963Z,69.36
2023-03-11T23:33:33.833Z,69.28
2023-03-11T23:36:03.936Z,69.05
2023-03-11T23:38:32.141Z,69.19
2023-03-11T23:41:00.180Z,69.11
2023-03-11T23:43:28.255Z,69.38
2023-03-11T23:45:56.389Z,69.73
2023-03-11T23:48:24.392Z,69.89
2023-03-11T23:50:52.484Z,69.93
2023-03-11T23:53:23.328Z,70.00
2023-03-11T23:55:52.000Z,70.22
2023-03-11T23:58:21.700Z,70.34
